Main page
METAR-TAF:

METAR-TAF

Airports :

Windhoek, Namibia

Town MET

latitude: 22-34S, longitude: 017-06E, elevation: 1725 m

Current weather observation

The report was made 52 minutes ago, at 01:00 UTC
Wind 5 kt from the East/Southeast
Temperature 13°C
Humidity 41%
Pressure 1024 hPa

METAR: FYWW 210100Z AUTO 11005KT //// // ////// 13/M00 Q1024

Time: 02:52 (01:52 UTC)


TAF: missing

Weather observations and forecasts of more than 4000 airports (METAR and TAF reports).

The available stations are represented by yellow and red dots on the map.

Hover mouse over dot to see the name of the station.

Then click to see weather observations and forecasts.

To change the map : click on the green buttons with a black cross to zoom in, on the green button with a dash to zoom out, or on the green arrows for adjacent maps.


METAR-TAF: